LETO/TOJ METAR and TAF weather

Enter ICAO airport designator
Station Type Date Time Source
LETO METAR 2020/12/01 21:00 UTC NOAA

LETO 012100Z 09005KT 050V120 CAVOK 09/03 Q1019 NOSIG


Station Type Date Time Source
LETO Decoded METAR 2020/12/01 21:00 UTC NOAA

Madrid / Torrejon, Spain (LETO) 40-29N 003-27W 611M
Dec 01, 2020 - 04:00 PM EST / 2020.12.01 2100 UTC
Wind: from the E (090 degrees) at 6 MPH (5 KT) (direction variable):0
Visibility: greater than 7 mile(s):0
Temperature: 48 F (9 C)
Dew Point: 37 F (3 C)
Relative Humidity: 66%
Pressure (altimeter): 30.09 in. Hg (1019 hPa)
ob: LETO 012100Z 09005KT 050V120 CAVOK 09/03 Q1019 NOSIG
cycle: 21

Station Type Date Time Source
LETO TAF 2020/12/01 18:30 UTC NOAA

TAF LETO 011700Z 0118/0218 VRB03KT CAVOK TX11/0216Z TN01/0207Z PROB40
TEMPO 0121/0203 36010KT
BECMG 0207/0209 36015KT
TEMPO 0209/0215 36017G27KT

Example: see airport list